Time;durP1;ratioP1;P1;durP2;ratioP2;P2;SDS_P1;SDS_P2;PMS_P1;PMS_P2;Temp;Humidity;BMP_temperature;BMP_pressure;BME280_temperature;BME280_humidity;BME280_pressure;Samples;Min_cycle;Max_cycle;Signal;HPM_P1;HPM_P2
2022/04/13 00:00:59;;;;;;;19.15;9.35;;;;;;;7.04;41.43;99754.96;1707148;84;20983;-36
2022/04/13 00:03:25;;;;;;;18.70;9.73;;;;;;;7.02;41.91;99758.08;1707110;84;21023;-40
2022/04/13 00:05:51;;;;;;;20.82;10.13;;;;;;;6.98;42.21;99746.88;1707233;84;20980;-37
2022/04/13 00:08:17;;;;;;;18.35;9.13;;;;;;;7.00;41.28;99746.36;1707189;84;21823;-36
2022/04/13 00:10:44;;;;;;;15.15;9.85;;;;;;;7.00;41.45;99742.91;1707260;84;20971;-36
2022/04/13 00:13:10;;;;;;;19.75;9.85;;;;;;;6.98;41.80;99744.72;1707249;84;21008;-35
2022/04/13 00:15:37;;;;;;;16.42;9.48;;;;;;;6.96;41.96;99742.61;1707137;84;21031;-37
2022/04/13 00:18:08;;;;;;;19.35;9.75;;;;;;;6.91;41.76;99738.83;1707225;84;21004;-36
2022/04/13 00:20:35;;;;;;;16.37;8.93;;;;;;;6.95;41.77;99743.50;1707128;84;20995;-37
2022/04/13 00:23:01;;;;;;;16.05;9.35;;;;;;;6.94;41.87;99745.73;1707214;84;20992;-36
2022/04/13 00:25:28;;;;;;;16.80;9.85;;;;;;;6.93;41.80;99742.27;1707168;84;21480;-43
2022/04/13 00:27:55;;;;;;;17.75;9.35;;;;;;;6.89;42.19;99744.13;1707295;84;20964;-38
2022/04/13 00:30:21;;;;;;;15.35;8.65;;;;;;;6.86;42.03;99744.23;1707301;84;20995;-36
2022/04/13 00:32:47;;;;;;;18.87;9.60;;;;;;;6.85;42.29;99742.97;1707113;84;21497;-42
2022/04/13 00:35:13;;;;;;;19.85;9.73;;;;;;;6.83;42.25;99751.31;1707208;84;20968;-37
2022/04/13 00:37:39;;;;;;;16.12;8.15;;;;;;;6.79;42.76;99757.09;1707191;84;21485;-37
2022/04/13 00:40:07;;;;;;;14.78;8.20;;;;;;;6.81;42.42;99762.27;1707156;84;20990;-38
2022/04/13 00:42:33;;;;;;;21.57;9.80;;;;;;;6.83;42.39;99768.30;1707089;84;20961;-38
2022/04/13 00:44:59;;;;;;;17.23;8.98;;;;;;;6.80;42.49;99764.01;1706858;84;21198;-36
2022/04/13 00:47:25;;;;;;;18.95;8.63;;;;;;;6.78;42.92;99771.52;1707056;84;21067;-36
2022/04/13 00:49:54;;;;;;;15.55;9.23;;;;;;;6.78;42.91;99772.36;1705438;83;21034;-37
2022/04/13 00:52:21;;;;;;;17.60;9.05;;;;;;;6.77;42.95;99775.89;1705417;83;21462;-36
2022/04/13 00:54:49;;;;;;;19.87;9.25;;;;;;;6.73;42.82;99774.26;1705568;83;21000;-37
2022/04/13 00:57:18;;;;;;;19.02;9.45;;;;;;;6.73;42.82;99775.56;1705413;83;21051;-37
2022/04/13 00:59:47;;;;;;;21.57;9.15;;;;;;;6.71;43.13;99778.69;1705422;83;21525;-37
2022/04/13 01:02:13;;;;;;;25.57;9.35;;;;;;;6.70;43.00;99777.84;1705354;84;21473;-37
2022/04/13 01:04:40;;;;;;;17.30;9.40;;;;;;;6.67;42.93;99784.45;1705482;84;21031;-36
2022/04/13 01:07:09;;;;;;;18.40;9.73;;;;;;;6.64;44.22;99781.96;1705569;84;20972;-37
2022/04/13 01:09:36;;;;;;;22.62;9.63;;;;;;;6.61;43.80;99775.97;1705241;84;21049;-37
2022/04/13 01:12:03;;;;;;;18.90;9.93;;;;;;;6.56;44.28;99772.19;1705567;84;21521;-36
2022/04/13 01:14:30;;;;;;;16.07;8.95;;;;;;;6.55;43.70;99773.11;1705531;84;21493;-36
2022/04/13 01:16:56;;;;;;;22.55;8.75;;;;;;;6.54;43.78;99773.99;1705510;83;21520;-36
2022/04/13 01:19:22;;;;;;;19.87;9.35;;;;;;;6.52;43.63;99769.27;1705439;84;21031;-37
2022/04/13 01:21:53;;;;;;;17.07;9.28;;;;;;;6.50;43.86;99774.54;1705446;83;20988;-38
2022/04/13 01:24:21;;;;;;;20.00;8.80;;;;;;;6.50;43.95;99776.30;1705411;83;21019;-40
2022/04/13 01:26:47;;;;;;;20.30;8.88;;;;;;;6.49;44.46;99779.81;1705412;84;21000;-41
2022/04/13 01:29:13;;;;;;;17.50;8.98;;;;;;;6.49;44.17;99778.08;1705424;83;21007;-37
2022/04/13 01:31:40;;;;;;;18.15;8.25;;;;;;;6.43;44.63;99780.85;1705645;84;21003;-36
2022/04/13 01:34:07;;;;;;;17.30;8.85;;;;;;;6.47;44.21;99786.38;1705552;83;21007;-37
2022/04/13 01:36:35;;;;;;;18.77;9.07;;;;;;;6.46;43.56;99784.69;1705880;84;21461;-38
2022/04/13 01:39:01;;;;;;;;;;;;;;;6.46;43.56;99784.69;1708011;84;20972;-36
2022/04/13 01:41:26;;;;;;;18.17;8.28;;;;;;;6.41;45.16;99786.58;1705410;83;20118;-36
2022/04/13 01:43:52;;;;;;;20.80;9.03;;;;;;;6.40;44.64;99784.86;1705447;83;20996;-36
2022/04/13 01:46:18;;;;;;;14.60;8.45;;;;;;;6.39;44.48;99782.31;1705603;84;21339;-37
2022/04/13 01:48:44;;;;;;;18.60;9.20;;;;;;;6.39;44.41;99787.08;1705472;83;21036;-37
2022/04/13 01:51:09;;;;;;;15.72;8.75;;;;;;;6.35;44.45;99788.09;1705618;83;21003;-38
2022/04/13 01:53:35;;;;;;;15.40;8.53;;;;;;;6.33;44.53;99792.05;1705608;83;21453;-38
2022/04/13 01:56:01;;;;;;;15.40;8.35;;;;;;;6.32;44.92;99792.08;1705529;83;21004;-37
2022/04/13 01:58:27;;;;;;;17.85;8.43;;;;;;;6.30;45.03;99787.36;1705629;84;21003;-37
2022/04/13 02:00:56;;;;;;;19.80;8.88;;;;;;;6.29;44.91;99776.06;1705288;83;21030;-38
2022/04/13 02:03:25;;;;;;;13.78;8.15;;;;;;;6.29;45.11;99776.49;1705522;84;21011;-36
2022/04/13 02:05:52;;;;;;;16.23;8.30;;;;;;;6.25;45.09;99774.88;1705540;84;21636;-37
2022/04/13 02:08:20;;;;;;;16.55;8.53;;;;;;;6.23;45.08;99773.61;1705670;84;21000;-39
2022/04/13 02:10:47;;;;;;;14.55;7.92;;;;;;;6.20;45.27;99781.53;1705530;83;21534;-38
2022/04/13 02:13:13;;;;;;;19.32;7.62;;;;;;;6.20;44.87;99775.46;1705544;83;21024;-38
2022/04/13 02:15:40;;;;;;;15.53;8.38;;;;;;;6.19;44.97;99779.84;1705815;83;21007;-36
2022/04/13 02:18:06;;;;;;;16.87;8.33;;;;;;;6.17;45.09;99781.64;1705508;84;21012;-36
2022/04/13 02:20:33;;;;;;;14.00;7.75;;;;;;;6.15;45.15;99786.06;1705506;84;21015;-36
2022/04/13 02:22:59;;;;;;;18.67;8.97;;;;;;;6.12;45.87;99788.75;1705753;83;21013;-37
2022/04/13 02:25:25;;;;;;;17.57;8.50;;;;;;;6.11;45.70;99785.30;1705602;84;21513;-37
2022/04/13 02:27:50;;;;;;;19.67;8.85;;;;;;;6.10;45.30;99786.18;1705615;84;21040;-38
2022/04/13 02:30:16;;;;;;;16.27;8.15;;;;;;;6.08;45.53;99785.38;1705522;84;20964;-37
2022/04/13 02:32:44;;;;;;;18.98;8.15;;;;;;;6.06;45.65;99785.88;1705517;83;20992;-38
2022/04/13 02:35:11;;;;;;;16.80;8.65;;;;;;;6.05;45.42;99787.22;1705611;84;21612;-37
2022/04/13 02:37:38;;;;;;;18.92;8.68;;;;;;;6.04;46.05;99790.28;1705655;84;20968;-38
2022/04/13 02:40:06;;;;;;;17.17;9.05;;;;;;;6.02;45.79;99789.48;1705633;84;21473;-38
2022/04/13 02:43:30;;;;;;;22.13;10.15;;;;;;;6.01;46.03;99794.28;1785036;79;28807;-37
2022/04/13 02:45:57;;;;;;;19.00;8.88;;;;;;;6.03;45.89;99801.61;1760436;80;21609;-37
2022/04/13 02:48:23;;;;;;;15.48;8.83;;;;;;;5.96;45.92;99797.47;1760751;80;21114;-38
2022/04/13 02:50:49;;;;;;;19.83;8.77;;;;;;;5.90;46.38;99801.53;1762102;81;21042;-39
2022/04/13 02:53:20;;;;;;;18.52;9.15;;;;;;;5.88;46.21;99802.03;1761864;81;21003;-38
2022/04/13 02:55:46;;;;;;;16.67;9.33;;;;;;;5.86;46.34;99794.23;1760903;81;21471;-37
2022/04/13 02:58:11;;;;;;;20.12;10.15;;;;;;;5.82;46.66;99794.34;1761753;80;21003;-35
2022/04/13 03:00:37;;;;;;;15.83;8.90;;;;;;;5.77;46.91;99783.59;1761762;81;20991;-36
2022/04/13 03:03:03;;;;;;;21.87;9.63;;;;;;;5.77;46.93;99780.98;1761845;81;20948;-35
2022/04/13 03:05:33;;;;;;;15.90;8.50;;;;;;;5.70;47.24;99778.14;1761779;80;20963;-36
2022/04/13 03:07:58;;;;;;;18.07;9.10;;;;;;;5.64;47.90;99782.23;1761887;81;20972;-38
2022/04/13 03:10:24;;;;;;;22.07;9.90;;;;;;;5.64;47.18;99780.93;1761754;81;20991;-37
2022/04/13 03:12:50;;;;;;;25.00;10.05;;;;;;;5.60;47.50;99776.67;1761750;81;20967;-37
2022/04/13 03:15:18;;;;;;;22.35;9.78;;;;;;;5.61;48.05;99784.91;1761752;81;21014;-37
2022/04/13 03:17:43;;;;;;;16.62;9.88;;;;;;;5.57;48.65;99774.16;1761828;81;21014;-38
2022/04/13 03:20:10;;;;;;;18.67;10.00;;;;;;;5.51;48.67;99779.10;1761773;80;20987;-35
2022/04/13 03:22:36;;;;;;;18.07;9.58;;;;;;;5.50;48.04;99774.77;1762008;80;20988;-37
2022/04/13 03:25:04;;;;;;;18.32;10.60;;;;;;;5.48;48.25;99782.23;1761772;81;20971;-35
2022/04/13 03:27:29;;;;;;;23.22;10.40;;;;;;;5.45;48.78;99783.61;1761805;81;20995;-43
2022/04/13 03:29:55;;;;;;;28.87;9.90;;;;;;;5.45;49.21;99786.22;1761704;81;21051;-37
2022/04/13 03:32:21;;;;;;;24.70;10.63;;;;;;;5.42;48.72;99784.98;1761789;80;21034;-38
2022/04/13 03:34:47;;;;;;;19.07;10.40;;;;;;;5.38;49.16;99789.00;1761794;81;21034;-37
2022/04/13 03:37:12;;;;;;;20.17;10.95;;;;;;;5.35;49.52;99791.69;1761819;80;20987;-36
2022/04/13 03:39:38;;;;;;;21.65;10.95;;;;;;;5.36;49.16;99789.47;1761867;81;20979;-38
2022/04/13 03:42:05;;;;;;;24.63;10.90;;;;;;;5.35;49.45;99786.47;1757504;81;21498;-35
2022/04/13 03:44:30;;;;;;;19.57;10.00;;;;;;;5.29;50.06;99784.00;1748676;82;20999;-38
2022/04/13 03:46:56;;;;;;;18.87;10.15;;;;;;;5.28;49.72;99788.82;1748728;81;20988;-35
2022/04/13 03:49:23;;;;;;;23.73;10.82;;;;;;;5.29;50.24;99797.49;1748754;81;21540;-37
2022/04/13 03:51:48;;;;;;;33.40;11.30;;;;;;;5.29;49.60;99789.67;1749033;81;20987;-38
2022/04/13 03:54:14;;;;;;;22.48;11.28;;;;;;;5.28;49.45;99793.19;1748264;81;21027;-39
2022/04/13 03:56:40;;;;;;;26.42;10.93;;;;;;;5.25;49.80;99790.20;1748196;81;21024;-39
2022/04/13 03:59:09;;;;;;;33.13;10.98;;;;;;;5.23;49.90;99797.20;1748100;82;20995;-36
2022/04/13 04:01:35;;;;;;;26.48;11.10;;;;;;;5.23;49.64;99795.05;1748091;81;21004;-39
2022/04/13 04:04:02;;;;;;;28.47;11.15;;;;;;;5.19;49.70;99785.15;1748185;81;20988;-35
2022/04/13 04:06:28;;;;;;;21.60;9.93;;;;;;;5.18;49.70;99792.12;1748411;81;20979;-37
2022/04/13 04:08:54;;;;;;;24.30;9.95;;;;;;;5.14;50.78;99787.86;1748091;81;20988;-38
2022/04/13 04:11:20;;;;;;;20.05;10.25;;;;;;;5.17;49.88;99791.70;1748163;81;21031;-39
2022/04/13 04:13:45;;;;;;;22.30;11.00;;;;;;;5.17;50.25;99794.77;1748182;81;20995;-39
2022/04/13 04:16:11;;;;;;;28.75;11.48;;;;;;;5.14;50.35;99802.66;1748179;81;20992;-39
2022/04/13 04:18:37;;;;;;;18.25;10.95;;;;;;;5.16;50.61;99804.77;1748107;81;20995;-36
2022/04/13 04:21:02;;;;;;;19.42;10.13;;;;;;;5.18;51.46;99802.98;1748113;81;20983;-38
2022/04/13 04:23:28;;;;;;;17.57;10.82;;;;;;;5.21;50.51;99801.61;1748071;82;20972;-38
2022/04/13 04:25:54;;;;;;;26.95;11.15;;;;;;;5.21;50.70;99803.37;1748063;81;21031;-38
2022/04/13 04:28:20;;;;;;;24.52;11.12;;;;;;;5.21;50.89;99802.06;1748030;81;20992;-39
2022/04/13 04:30:45;;;;;;;18.23;10.38;;;;;;;5.20;50.41;99812.91;1748098;81;20960;-39
2022/04/13 04:33:16;;;;;;;19.90;9.98;;;;;;;5.22;50.43;99806.36;1748040;81;20960;-39
2022/04/13 04:35:51;;;;;;;27.45;10.55;;;;;;;5.19;50.76;99808.16;1748132;81;21457;-39
2022/04/13 04:38:14;;;;;;;25.25;10.93;;;;;;;5.24;50.70;99819.80;1747303;81;21028;-36
2022/04/13 04:40:40;;;;;;;24.32;9.90;;;;;;;5.25;50.97;99817.58;1748163;81;21027;-37
2022/04/13 04:43:06;;;;;;;21.93;10.15;;;;;;;5.28;50.60;99823.18;1756555;81;21132;-37
2022/04/13 04:45:32;;;;;;;17.42;10.20;;;;;;;5.26;50.93;99819.76;1761433;81;20983;-39
2022/04/13 04:48:04;;;;;;;23.67;11.60;;;;;;;5.25;50.76;99813.66;1761411;81;20974;-37
2022/04/13 04:50:25;;;;;;;;;;;;;;;5.23;50.79;99818.06;1763369;81;20975;-36
2022/04/13 04:52:51;;;;;;;20.17;10.03;;;;;;;5.26;51.30;99811.48;1761427;81;20409;-37
2022/04/13 04:55:19;;;;;;;22.48;10.32;;;;;;;5.25;50.69;99811.05;1761467;81;20964;-38
2022/04/13 04:57:46;;;;;;;25.37;10.20;;;;;;;5.28;50.93;99817.97;1761463;80;21030;-41
2022/04/13 05:00:18;;;;;;;18.70;9.88;;;;;;;5.26;51.40;99823.21;1761615;81;21003;-39
2022/04/13 05:02:47;;;;;;;21.12;10.53;;;;;;;5.31;50.82;99816.56;1761357;81;21030;-39
2022/04/13 05:05:14;;;;;;;22.13;11.05;;;;;;;5.35;50.67;99825.59;1761404;81;20988;-37
2022/04/13 05:07:40;;;;;;;20.73;10.87;;;;;;;5.37;50.38;99826.86;1761719;81;21449;-37
2022/04/13 05:10:08;;;;;;;19.60;10.50;;;;;;;5.37;50.60;99829.01;1761483;81;20975;-37
2022/04/13 05:12:49;;;;;;;18.67;9.83;;;;;;;5.39;50.47;99827.22;1761772;81;21554;-36
2022/04/13 05:15:16;;;;;;;19.05;10.00;;;;;;;5.46;50.91;99828.38;1761449;81;21050;-37
2022/04/13 05:17:42;;;;;;;25.82;9.75;;;;;;;5.49;50.31;99826.97;1761434;81;21531;-36
2022/04/13 05:20:10;;;;;;;22.73;9.55;;;;;;;5.55;50.26;99832.05;1761613;81;21015;-40
2022/04/13 05:22:36;;;;;;;23.60;10.25;;;;;;;5.52;50.59;99835.58;1761353;81;20991;-38
2022/04/13 05:25:13;;;;;;;19.67;10.32;;;;;;;5.61;49.92;99832.34;1761485;81;21031;-40
2022/04/13 05:27:39;;;;;;;19.60;9.95;;;;;;;5.67;49.72;99836.08;1761475;81;21532;-40
2022/04/13 05:30:07;;;;;;;21.15;9.73;;;;;;;5.69;49.76;99835.13;1761429;80;21003;-40
2022/04/13 05:32:49;;;;;;;19.23;10.58;;;;;;;5.71;49.72;99829.88;1761357;80;21019;-40
2022/04/13 05:35:17;;;;;;;22.65;10.75;;;;;;;5.79;49.59;99824.47;1761393;81;21469;-41
2022/04/13 05:37:44;;;;;;;26.85;9.80;;;;;;;5.81;49.63;99827.44;1760267;81;21026;-41
2022/04/13 05:40:11;;;;;;;20.25;9.40;;;;;;;5.86;49.34;99835.16;1761372;81;21485;-38
2022/04/13 05:42:37;;;;;;;27.93;10.35;;;;;;;5.88;49.43;99833.35;1757244;81;21358;-38
2022/04/13 05:45:04;;;;;;;21.93;9.63;;;;;;;5.92;49.54;99833.67;1747995;81;20995;-40
2022/04/13 05:47:30;;;;;;;23.27;10.10;;;;;;;5.99;49.14;99841.77;1748169;81;21449;-38
2022/04/13 05:49:55;;;;;;;19.48;9.43;;;;;;;6.05;49.30;99842.05;1748081;81;20996;-37
2022/04/13 05:52:21;;;;;;;21.10;10.50;;;;;;;6.08;49.31;99846.73;1747993;82;20983;-38
2022/04/13 05:54:47;;;;;;;36.00;10.78;;;;;;;6.15;48.78;99846.97;1748005;81;20960;-39
2022/04/13 05:57:13;;;;;;;18.30;9.95;;;;;;;6.20;48.78;99847.28;1748042;81;21015;-40
2022/04/13 05:59:39;;;;;;;17.50;9.00;;;;;;;6.23;48.96;99847.20;1748003;81;20991;-41
2022/04/13 06:02:05;;;;;;;24.57;10.43;;;;;;;6.32;48.54;99849.09;1747981;81;20995;-38
2022/04/13 06:04:31;;;;;;;21.10;9.63;;;;;;;6.35;48.60;99850.77;1747985;82;21030;-40
2022/04/13 06:06:59;;;;;;;17.10;9.55;;;;;;;6.41;48.40;99853.20;1748123;81;21535;-40
2022/04/13 06:09:24;;;;;;;;;;;;;;;6.45;48.47;99859.19;1750656;81;20979;-38
2022/04/13 06:11:51;;;;;;;17.65;9.00;;;;;;;6.46;48.81;99866.98;1747983;82;20104;-40
2022/04/13 06:14:17;;;;;;;25.32;9.60;;;;;;;6.54;48.35;99862.84;1747955;81;20995;-38
2022/04/13 06:16:44;;;;;;;27.80;9.93;;;;;;;6.56;48.63;99864.10;1748096;81;20996;-39
2022/04/13 06:19:10;;;;;;;22.37;10.08;;;;;;;6.61;48.51;99864.83;1748162;81;21022;-37
2022/04/13 06:21:36;;;;;;;23.62;10.43;;;;;;;6.68;48.45;99869.81;1747986;81;21462;-38
2022/04/13 06:24:03;;;;;;;19.48;10.03;;;;;;;6.75;48.26;99873.55;1748129;81;20968;-37
2022/04/13 06:26:29;;;;;;;25.12;10.15;;;;;;;6.77;48.29;99864.77;1748267;81;20999;-39
2022/04/13 06:28:55;;;;;;;20.23;9.75;;;;;;;6.81;48.20;99871.61;1748021;81;21555;-41
2022/04/13 06:31:20;;;;;;;23.92;10.55;;;;;;;6.87;48.14;99876.63;1748084;81;21445;-37
2022/04/13 06:33:47;;;;;;;18.00;10.53;;;;;;;6.96;47.84;99882.50;1748061;81;20992;-38
2022/04/13 06:36:13;;;;;;;25.82;10.30;;;;;;;7.00;47.90;99878.87;1748100;81;20987;-39
2022/04/13 06:38:40;;;;;;;23.20;10.08;;;;;;;7.09;47.85;99884.70;1747996;81;20992;-39
2022/04/13 06:41:10;;;;;;;30.45;11.10;;;;;;;7.15;47.74;99879.72;1748128;81;21039;-40
2022/04/13 06:43:36;;;;;;;28.42;10.45;;;;;;;7.19;47.97;99883.09;1747901;81;21568;-41
2022/04/13 06:46:02;;;;;;;18.57;10.28;;;;;;;7.25;47.62;99892.05;1748072;81;21007;-37
2022/04/13 06:48:27;;;;;;;20.25;9.38;;;;;;;7.32;47.43;99887.48;1747963;81;20995;-37
2022/04/13 06:50:53;;;;;;;17.40;9.95;;;;;;;7.40;47.45;99894.61;1747977;81;21044;-38
2022/04/13 06:53:19;;;;;;;18.80;9.80;;;;;;;7.47;47.16;99898.73;1747977;82;20971;-37
2022/04/13 06:55:47;;;;;;;22.80;10.43;;;;;;;7.53;46.88;99901.17;1747938;81;21018;-39
2022/04/13 06:58:15;;;;;;;19.85;9.03;;;;;;;7.60;46.95;99899.19;1747979;81;21511;-37
2022/04/13 07:00:41;;;;;;;25.35;9.48;;;;;;;7.69;46.50;99896.26;1747974;81;21015;-38
2022/04/13 07:03:07;;;;;;;18.62;9.28;;;;;;;7.75;46.37;99897.81;1748043;81;21031;-39
2022/04/13 07:05:33;;;;;;;21.42;9.43;;;;;;;7.82;46.40;99896.70;1748028;81;20992;-41
2022/04/13 07:08:00;;;;;;;21.75;9.15;;;;;;;7.89;46.29;99900.81;1748083;81;21863;-39
2022/04/13 07:10:27;;;;;;;17.60;9.23;;;;;;;7.94;46.03;99900.20;1748082;81;20991;-40
2022/04/13 07:12:53;;;;;;;17.55;9.45;;;;;;;8.02;46.12;99905.17;1747977;81;21026;-38
2022/04/13 07:15:19;;;;;;;22.90;9.37;;;;;;;8.08;46.03;99905.82;1748328;81;20964;-39
2022/04/13 07:17:46;;;;;;;18.92;8.45;;;;;;;8.17;46.03;99899.41;1748088;81;21464;-39
2022/04/13 07:20:13;;;;;;;14.60;8.85;;;;;;;8.31;45.65;99905.91;1748241;81;20999;-38
2022/04/13 07:22:46;;;;;;;15.25;9.08;;;;;;;8.38;45.12;99906.93;1748087;81;21043;-39
2022/04/13 07:25:14;;;;;;;18.77;9.13;;;;;;;8.44;45.42;99898.02;1747940;81;21512;-35
2022/04/13 07:27:40;;;;;;;17.62;8.80;;;;;;;8.52;45.24;99904.31;1748119;81;20968;-37
2022/04/13 07:30:07;;;;;;;16.77;9.28;;;;;;;8.61;44.81;99906.12;1748008;81;21034;-37
2022/04/13 07:32:33;;;;;;;;;;;;;;;8.75;45.15;99909.55;1750664;82;20991;-38
2022/04/13 07:34:59;;;;;;;16.73;9.10;;;;;;;9.00;44.67;99904.22;1748131;81;20112;-38
2022/04/13 07:37:26;;;;;;;21.12;9.28;;;;;;;9.00;44.67;99904.22;1748063;82;20999;-38
2022/04/13 07:39:53;;;;;;;21.00;8.83;;;;;;;9.15;44.66;99900.14;1748251;81;21042;-38
2022/04/13 07:42:22;;;;;;;17.30;8.60;;;;;;;9.29;44.06;99897.41;1748325;81;20983;-38
2022/04/13 07:44:49;;;;;;;15.13;8.43;;;;;;;9.44;43.48;99899.43;1748033;81;21500;-39
2022/04/13 07:47:15;;;;;;;20.97;8.78;;;;;;;9.59;44.13;99896.63;1748235;81;21511;-37
2022/04/13 07:49:42;;;;;;;12.23;7.28;;;;;;;9.77;43.83;99898.94;1748119;81;21035;-37
2022/04/13 07:52:08;;;;;;;;;;;;;;;9.90;42.25;99893.55;1750714;81;20991;-38
2022/04/13 07:54:34;;;;;;;13.75;7.20;;;;;;;10.04;42.60;99894.72;1748157;81;20101;-38
2022/04/13 07:57:00;;;;;;;19.40;7.28;;;;;;;10.23;42.59;99898.25;1748109;81;21043;-39
2022/04/13 07:59:27;;;;;;;19.12;7.08;;;;;;;10.37;41.86;99898.53;1748126;81;21027;-37
2022/04/13 08:01:54;;;;;;;13.65;7.80;;;;;;;10.53;41.67;99893.87;1748224;81;20992;-36
2022/04/13 08:04:20;;;;;;;11.33;6.40;;;;;;;10.71;41.25;99894.37;1748128;81;21476;-40
2022/04/13 08:06:46;;;;;;;9.88;6.08;;;;;;;10.88;40.74;99898.00;1748041;81;20995;-41
2022/04/13 08:09:13;;;;;;;14.35;6.40;;;;;;;11.09;40.54;99896.96;1748348;81;20995;-37
2022/04/13 08:11:38;;;;;;;14.73;6.58;;;;;;;11.20;39.33;99891.19;1748115;81;20999;-38
2022/04/13 08:14:05;;;;;;;16.80;7.72;;;;;;;11.34;39.68;99895.80;1748058;81;21031;-37
2022/04/13 08:16:31;;;;;;;10.53;6.25;;;;;;;11.50;39.55;99894.11;1748123;81;21769;-38
2022/04/13 08:18:56;;;;;;;11.00;6.15;;;;;;;11.65;39.46;99896.91;1748147;81;20964;-38
2022/04/13 08:21:22;;;;;;;15.63;6.78;;;;;;;11.80;39.16;99894.81;1748014;81;20972;-40
2022/04/13 08:23:49;;;;;;;15.43;6.78;;;;;;;11.92;37.54;99893.85;1748065;81;21042;-40
